createdAt,value
2023-02-25T00:00:22.855Z,47.72
2023-02-25T00:00:46.301Z,47.68
2023-02-25T00:01:09.584Z,47.54
2023-02-25T00:01:32.353Z,47.53
2023-02-25T00:02:03.815Z,47.65
2023-02-25T00:02:26.333Z,47.60
2023-02-25T00:02:49.986Z,47.52
2023-02-25T00:03:12.612Z,47.35
2023-02-25T00:03:35.740Z,47.49
2023-02-25T00:03:59.030Z,47.46
2023-02-25T00:04:20.742Z,47.64
2023-02-25T00:04:42.973Z,47.59
2023-02-25T00:05:09.134Z,47.53
2023-02-25T00:05:32.065Z,47.14
2023-02-25T00:05:54.842Z,47.10
2023-02-25T00:06:16.708Z,47.44
2023-02-25T00:06:38.730Z,47.31
2023-02-25T00:07:01.308Z,47.40
2023-02-25T00:07:30.795Z,47.26
2023-02-25T00:07:53.901Z,47.36
2023-02-25T00:08:16.580Z,47.50
2023-02-25T00:08:38.239Z,47.46
2023-02-25T00:09:00.988Z,47.38
2023-02-25T00:09:23.031Z,47.29
2023-02-25T00:09:44.904Z,47.21
2023-02-25T00:10:07.820Z,47.11
2023-02-25T00:10:31.285Z,47.13
2023-02-25T00:10:57.910Z,47.22
2023-02-25T00:11:20.470Z,47.35
2023-02-25T00:11:43.198Z,47.44
2023-02-25T00:12:05.293Z,47.62
2023-02-25T00:12:28.488Z,47.48
2023-02-25T00:12:50.817Z,47.61
2023-02-25T00:13:18.474Z,47.35
2023-02-25T00:13:43.627Z,47.25
2023-02-25T00:14:05.496Z,47.29
2023-02-25T00:14:27.518Z,47.46
2023-02-25T00:14:49.322Z,47.32
2023-02-25T00:15:11.411Z,47.12
2023-02-25T00:15:34.133Z,47.13
2023-02-25T00:15:58.156Z,47.35
2023-02-25T00:16:22.516Z,47.55
2023-02-25T00:16:45.025Z,47.31
2023-02-25T00:17:06.828Z,47.55
2023-02-25T00:17:29.577Z,47.48
2023-02-25T00:17:51.525Z,47.46
2023-02-25T00:18:13.349Z,47.35
2023-02-25T00:18:35.401Z,47.04
2023-02-25T00:19:00.652Z,47.11
2023-02-25T00:19:22.295Z,47.22
2023-02-25T00:19:44.030Z,47.02
2023-02-25T00:20:13.092Z,46.96
2023-02-25T00:20:34.847Z,47.05
2023-02-25T00:20:58.245Z,47.09
2023-02-25T00:21:20.106Z,47.14
2023-02-25T00:21:41.864Z,47.05
2023-02-25T00:22:03.761Z,47.01
2023-02-25T00:22:27.133Z,46.79
2023-02-25T00:22:49.335Z,47.03
2023-02-25T00:23:11.091Z,47.00
2023-02-25T00:23:32.918Z,46.87
2023-02-25T00:23:58.235Z,46.81
2023-02-25T00:24:22.209Z,46.72
2023-02-25T00:24:43.965Z,46.84
2023-02-25T00:25:07.318Z,46.63
2023-02-25T00:25:29.098Z,46.77
2023-02-25T00:26:00.124Z,46.87
2023-02-25T00:26:23.306Z,46.83
2023-02-25T00:26:45.485Z,47.06
2023-02-25T00:27:09.422Z,47.10
2023-02-25T00:27:31.378Z,47.11
2023-02-25T00:27:54.326Z,47.25
2023-02-25T00:28:16.041Z,47.17
2023-02-25T00:28:39.946Z,47.27
2023-02-25T00:29:01.729Z,46.97
2023-02-25T00:29:24.473Z,47.18
2023-02-25T00:29:46.101Z,47.01
2023-02-25T00:30:10.758Z,46.86
2023-02-25T00:30:32.870Z,46.91
2023-02-25T00:30:55.006Z,46.93
2023-02-25T00:31:20.515Z,46.83
2023-02-25T00:31:42.443Z,46.94
2023-02-25T00:32:04.435Z,47.24
2023-02-25T00:32:27.190Z,47.07
2023-02-25T00:32:49.925Z,47.05
2023-02-25T00:33:12.782Z,46.92
2023-02-25T00:33:34.425Z,47.22
2023-02-25T00:33:56.131Z,47.00
2023-02-25T00:34:17.937Z,47.06
2023-02-25T00:34:40.777Z,47.09
2023-02-25T00:35:04.624Z,47.10
2023-02-25T00:35:27.765Z,47.08
2023-02-25T00:35:49.921Z,47.28
2023-02-25T00:36:14.847Z,47.30
2023-02-25T00:36:37.578Z,47.26
2023-02-25T00:37:00.879Z,47.11
2023-02-25T00:37:23.207Z,47.03
2023-02-25T00:37:44.998Z,47.02
2023-02-25T00:38:15.866Z,47.10
2023-02-25T00:38:41.412Z,47.20
2023-02-25T00:39:03.597Z,46.92
2023-02-25T00:39:36.345Z,47.21
2023-02-25T00:39:59.071Z,47.44
2023-02-25T00:40:22.189Z,47.48
2023-02-25T00:40:44.025Z,47.08
2023-02-25T00:41:11.414Z,47.41
2023-02-25T00:41:33.994Z,47.44
2023-02-25T00:41:55.605Z,47.36
2023-02-25T00:42:18.856Z,47.41
2023-02-25T00:42:41.752Z,47.54
2023-02-25T00:43:03.454Z,47.43
2023-02-25T00:43:26.201Z,47.39
2023-02-25T00:43:51.186Z,47.42
2023-02-25T00:44:13.019Z,47.25
2023-02-25T00:44:34.798Z,47.42
2023-02-25T00:44:57.562Z,47.44
2023-02-25T00:45:19.257Z,47.19
2023-02-25T00:45:40.913Z,47.38
2023-02-25T00:46:02.635Z,47.33
2023-02-25T00:46:26.763Z,47.21
2023-02-25T00:46:48.622Z,47.43
2023-02-25T00:47:10.497Z,47.45
2023-02-25T00:47:33.109Z,47.41
2023-02-25T00:47:54.797Z,47.22
2023-02-25T00:48:17.524Z,47.19
2023-02-25T00:48:40.199Z,47.17
2023-02-25T00:49:02.384Z,47.14
2023-02-25T00:49:32.217Z,47.20
2023-02-25T00:49:55.424Z,47.18
2023-02-25T00:50:17.237Z,47.14
2023-02-25T00:50:40.382Z,47.17
2023-02-25T00:51:06.511Z,47.10
2023-02-25T00:51:32.089Z,47.01
2023-02-25T00:51:53.800Z,47.13
2023-02-25T00:52:16.843Z,47.22
2023-02-25T00:52:38.966Z,47.12
2023-02-25T00:53:01.999Z,47.17
2023-02-25T00:53:23.721Z,46.96
2023-02-25T00:53:45.996Z,47.24
2023-02-25T00:54:07.848Z,46.96
2023-02-25T00:54:31.097Z,46.95
2023-02-25T00:54:52.874Z,46.72
2023-02-25T00:55:14.530Z,46.75
2023-02-25T00:55:36.573Z,46.92
2023-02-25T00:55:59.562Z,47.05
2023-02-25T00:56:22.739Z,46.86
2023-02-25T00:56:44.550Z,46.72
2023-02-25T00:57:06.816Z,46.89
2023-02-25T00:57:28.553Z,46.83
2023-02-25T00:57:50.570Z,46.64
2023-02-25T00:58:13.441Z,46.67
2023-02-25T00:58:36.644Z,46.73
2023-02-25T00:58:59.654Z,46.87
2023-02-25T00:59:21.574Z,46.80
2023-02-25T00:59:44.173Z,46.96
2023-02-25T01:00:10.221Z,47.06
2023-02-25T01:00:40.470Z,46.93
2023-02-25T01:01:17.131Z,46.67
2023-02-25T01:01:41.025Z,46.61
2023-02-25T01:02:02.813Z,46.72
2023-02-25T01:02:24.801Z,46.78
2023-02-25T01:02:46.742Z,46.43
2023-02-25T01:03:08.381Z,46.52
2023-02-25T01:03:31.154Z,46.31
2023-02-25T01:03:55.689Z,46.15
2023-02-25T01:04:17.650Z,46.45
2023-02-25T01:04:39.554Z,46.51
2023-02-25T01:05:03.638Z,46.64
2023-02-25T01:05:25.565Z,46.84
2023-02-25T01:05:49.579Z,46.86
2023-02-25T01:06:11.741Z,46.74
2023-02-25T01:06:36.568Z,46.56
2023-02-25T01:06:58.614Z,46.80
2023-02-25T01:07:21.738Z,46.85
2023-02-25T01:07:43.471Z,46.83
2023-02-25T01:08:05.989Z,46.97
2023-02-25T01:08:28.964Z,46.77
2023-02-25T01:08:50.856Z,46.85
2023-02-25T01:09:13.980Z,46.73
2023-02-25T01:09:35.874Z,46.40
2023-02-25T01:09:57.720Z,46.57
2023-02-25T01:10:20.469Z,46.41
2023-02-25T01:10:42.273Z,46.62
2023-02-25T01:11:11.171Z,46.54
2023-02-25T01:11:35.830Z,46.39
2023-02-25T01:11:58.419Z,46.78
2023-02-25T01:12:20.181Z,46.51
2023-02-25T01:12:42.015Z,46.60
2023-02-25T01:13:04.823Z,46.38
2023-02-25T01:13:27.946Z,46.20
2023-02-25T01:13:49.971Z,46.53
2023-02-25T01:14:14.417Z,46.36
2023-02-25T01:14:36.169Z,46.31
2023-02-25T01:15:00.097Z,46.30
2023-02-25T01:15:21.864Z,46.28
2023-02-25T01:15:43.714Z,46.30
2023-02-25T01:16:11.049Z,46.21
2023-02-25T01:16:35.540Z,46.28
2023-02-25T01:17:02.106Z,46.25
2023-02-25T01:17:24.039Z,46.19
2023-02-25T01:17:45.840Z,46.42
2023-02-25T01:18:07.676Z,46.31
2023-02-25T01:18:30.840Z,46.42
2023-02-25T01:18:54.147Z,46.36
2023-02-25T01:19:19.632Z,46.47
2023-02-25T01:19:42.737Z,46.63
2023-02-25T01:20:11.597Z,46.66
2023-02-25T01:20:38.039Z,46.22
2023-02-25T01:21:01.443Z,46.06
2023-02-25T01:21:31.435Z,46.13
2023-02-25T01:21:55.660Z,46.31
2023-02-25T01:22:17.444Z,46.33
2023-02-25T01:22:41.848Z,46.35
2023-02-25T01:23:04.681Z,46.03
2023-02-25T01:23:26.507Z,46.21
2023-02-25T01:23:49.327Z,46.61
2023-02-25T01:24:13.218Z,46.48
2023-02-25T01:24:36.367Z,46.43
2023-02-25T01:24:58.180Z,46.46
2023-02-25T01:25:19.845Z,46.26
2023-02-25T01:25:41.904Z,46.19
2023-02-25T01:26:05.310Z,46.15
2023-02-25T01:26:29.679Z,46.15
2023-02-25T01:26:53.610Z,46.34
2023-02-25T01:27:15.388Z,46.59
2023-02-25T01:27:38.120Z,46.45
2023-02-25T01:28:00.507Z,46.48
2023-02-25T01:28:23.640Z,46.10
2023-02-25T01:28:46.602Z,46.06
2023-02-25T01:29:09.327Z,46.04
2023-02-25T01:29:33.881Z,46.24
2023-02-25T01:29:55.524Z,45.98
2023-02-25T01:30:18.572Z,45.85
2023-02-25T01:30:40.522Z,46.01
2023-02-25T01:31:02.364Z,46.34
2023-02-25T01:31:29.236Z,46.21
2023-02-25T01:31:54.345Z,46.06
2023-02-25T01:32:18.166Z,45.90
2023-02-25T01:32:40.422Z,46.10
2023-02-25T01:33:46.862Z,46.08
2023-02-25T01:34:10.989Z,46.26
2023-02-25T01:34:33.872Z,46.10
2023-02-25T01:34:58.658Z,46.06
2023-02-25T01:35:20.572Z,46.00
2023-02-25T01:35:42.473Z,46.19
2023-02-25T01:36:06.551Z,46.22
2023-02-25T01:36:32.145Z,45.92
2023-02-25T01:36:54.162Z,46.01
2023-02-25T01:37:16.182Z,46.15
2023-02-25T01:37:37.995Z,46.05
2023-02-25T01:38:00.738Z,45.91
2023-02-25T01:38:22.498Z,46.08
2023-02-25T01:38:44.259Z,46.21
2023-02-25T01:39:06.347Z,45.89
2023-02-25T01:39:28.598Z,46.17
2023-02-25T01:39:51.431Z,46.17
2023-02-25T01:40:17.030Z,46.27
2023-02-25T01:40:38.830Z,46.24
2023-02-25T01:41:01.113Z,46.36
2023-02-25T01:41:24.131Z,46.24
2023-02-25T01:41:46.511Z,46.26
2023-02-25T01:42:15.209Z,45.79
2023-02-25T01:42:36.903Z,45.92
2023-02-25T01:42:59.630Z,46.13
2023-02-25T01:43:22.909Z,46.06
2023-02-25T01:44:03.770Z,45.90
2023-02-25T01:44:31.726Z,45.85
2023-02-25T01:45:28.799Z,45.88
2023-02-25T01:45:50.665Z,46.03
2023-02-25T01:46:13.476Z,46.04
2023-02-25T01:46:35.707Z,45.90
2023-02-25T01:46:58.003Z,45.90
2023-02-25T01:47:20.885Z,45.90
2023-02-25T01:47:42.709Z,45.92
2023-02-25T01:48:12.265Z,46.11
2023-02-25T01:48:38.638Z,45.83
2023-02-25T01:49:01.706Z,45.66
2023-02-25T01:49:29.098Z,45.71
2023-02-25T01:49:52.734Z,45.79
2023-02-25T01:50:15.078Z,45.89
2023-02-25T01:50:42.597Z,45.81
2023-02-25T01:51:10.078Z,45.81
2023-02-25T01:51:34.007Z,45.68
2023-02-25T01:51:59.614Z,45.79
2023-02-25T01:52:23.975Z,46.17
2023-02-25T01:52:46.095Z,45.89
2023-02-25T01:53:10.266Z,45.87
2023-02-25T01:53:37.403Z,45.63
2023-02-25T01:54:02.919Z,45.52
2023-02-25T01:54:26.070Z,45.49
2023-02-25T01:54:53.617Z,45.91
2023-02-25T01:55:15.942Z,45.79
2023-02-25T01:55:41.510Z,45.66
2023-02-25T01:56:05.358Z,45.92
2023-02-25T01:56:27.924Z,45.79
2023-02-25T01:56:52.932Z,45.79
2023-02-25T01:57:17.158Z,45.87
2023-02-25T01:57:39.131Z,45.74
2023-02-25T01:58:03.162Z,45.90
2023-02-25T01:58:26.918Z,45.54
2023-02-25T01:58:49.533Z,45.35
2023-02-25T01:59:12.767Z,45.73
2023-02-25T01:59:39.498Z,45.86
2023-02-25T02:00:01.568Z,45.48
2023-02-25T02:00:35.968Z,45.21
2023-02-25T02:00:57.982Z,45.32
2023-02-25T02:01:25.376Z,45.80
2023-02-25T02:01:47.457Z,45.79
2023-02-25T02:02:10.007Z,45.31
2023-02-25T02:02:34.190Z,45.55
2023-02-25T02:03:00.936Z,45.39
2023-02-25T02:03:27.670Z,45.39
2023-02-25T02:03:51.473Z,45.26
2023-02-25T02:04:15.150Z,45.38
2023-02-25T02:04:39.565Z,45.60
2023-02-25T02:05:02.949Z,45.37
2023-02-25T02:05:29.027Z,45.45
2023-02-25T02:06:00.136Z,45.17
2023-02-25T02:06:28.292Z,45.07
2023-02-25T02:06:52.579Z,45.28
2023-02-25T02:07:14.631Z,45.50
2023-02-25T02:07:36.810Z,45.44
2023-02-25T02:07:59.854Z,45.63
2023-02-25T02:08:23.389Z,45.51
2023-02-25T02:08:46.574Z,45.42
2023-02-25T02:09:13.330Z,45.57
2023-02-25T02:09:36.854Z,45.45
2023-02-25T02:10:00.002Z,45.46
2023-02-25T02:10:22.802Z,45.30
2023-02-25T02:10:48.991Z,45.30
2023-02-25T02:11:11.099Z,45.45
2023-02-25T02:11:33.126Z,45.55
2023-02-25T02:11:58.632Z,45.81
2023-02-25T02:12:20.448Z,45.58
2023-02-25T02:12:46.542Z,45.40
2023-02-25T02:13:08.453Z,45.55
2023-02-25T02:13:33.046Z,45.58
2023-02-25T02:13:59.559Z,45.50
2023-02-25T02:14:26.804Z,45.55
2023-02-25T02:14:50.697Z,45.33
2023-02-25T02:15:15.257Z,45.51
2023-02-25T02:15:41.158Z,45.34
2023-02-25T02:16:18.120Z,45.09
2023-02-25T02:17:14.646Z,44.95
2023-02-25T02:17:43.753Z,45.62
2023-02-25T02:18:07.609Z,45.44
2023-02-25T02:18:34.010Z,45.69
2023-02-25T02:18:59.958Z,45.44
2023-02-25T02:19:38.397Z,45.63
2023-02-25T02:20:11.587Z,45.69
2023-02-25T02:20:46.133Z,45.36
2023-02-25T02:21:22.355Z,45.23
2023-02-25T02:22:00.650Z,45.38
2023-02-25T02:22:28.814Z,45.28
2023-02-25T02:23:22.073Z,45.54
2023-02-25T02:24:17.113Z,45.34
2023-02-25T02:24:59.645Z,45.36
2023-02-25T02:25:52.733Z,45.54
2023-02-25T02:26:34.677Z,45.54
2023-02-25T02:27:02.310Z,45.48
2023-02-25T02:27:30.440Z,45.60
2023-02-25T02:28:26.568Z,45.51
2023-02-25T02:29:12.978Z,45.35
2023-02-25T02:29:53.990Z,45.60
2023-02-25T02:30:36.459Z,45.50
2023-02-25T02:31:19.618Z,45.83
2023-02-25T02:31:57.037Z,45.51
2023-02-25T02:32:31.831Z,45.52
2023-02-25T02:33:00.935Z,45.51
2023-02-25T02:33:29.667Z,45.64
2023-02-25T02:33:58.688Z,45.55
2023-02-25T02:34:35.656Z,45.40
2023-02-25T02:35:05.288Z,45.33
2023-02-25T02:35:36.736Z,45.34
2023-02-25T02:36:07.116Z,45.44
2023-02-25T02:36:38.767Z,45.29
2023-02-25T02:37:13.054Z,45.52
2023-02-25T02:37:43.871Z,45.53
2023-02-25T02:38:14.702Z,45.80
2023-02-25T02:38:42.546Z,45.61
2023-02-25T02:39:13.578Z,45.62
2023-02-25T02:39:49.757Z,45.42
2023-02-25T02:40:24.743Z,45.71
2023-02-25T02:40:55.008Z,45.73
2023-02-25T02:41:27.520Z,46.02
2023-02-25T02:41:59.983Z,45.66
2023-02-25T02:42:31.558Z,45.40
2023-02-25T02:43:09.720Z,45.78
2023-02-25T02:43:42.793Z,45.76
2023-02-25T02:44:12.844Z,45.53
2023-02-25T02:44:42.288Z,45.48
2023-02-25T02:45:10.583Z,45.57
2023-02-25T02:45:40.498Z,45.54
2023-02-25T02:46:10.220Z,45.56
2023-02-25T02:46:38.524Z,45.46
2023-02-25T02:47:05.437Z,45.44
2023-02-25T02:47:33.457Z,45.62
2023-02-25T02:48:00.726Z,45.63
2023-02-25T02:48:29.516Z,45.66
2023-02-25T02:48:56.252Z,45.76
2023-02-25T02:49:21.933Z,45.52
2023-02-25T02:49:46.913Z,45.55
2023-02-25T02:50:13.475Z,45.58
2023-02-25T02:50:38.949Z,45.38
2023-02-25T02:51:03.413Z,45.28
2023-02-25T02:51:30.442Z,45.66
2023-02-25T02:51:58.928Z,45.66
2023-02-25T02:52:25.153Z,45.55
2023-02-25T02:52:52.182Z,45.48
2023-02-25T02:53:21.142Z,45.52
2023-02-25T02:53:48.071Z,45.69
2023-02-25T02:54:14.074Z,45.49
2023-02-25T02:54:39.795Z,45.33
2023-02-25T02:55:06.320Z,45.45
2023-02-25T02:55:33.499Z,45.64
2023-02-25T02:55:59.052Z,45.35
2023-02-25T02:56:25.036Z,45.40
2023-02-25T02:56:51.786Z,45.43
2023-02-25T02:57:15.685Z,45.27
2023-02-25T02:57:42.070Z,45.12
2023-02-25T02:58:10.865Z,45.07
2023-02-25T02:58:36.852Z,45.39
2023-02-25T02:59:05.262Z,45.25
2023-02-25T02:59:33.997Z,45.46
2023-02-25T03:00:00.537Z,45.27
2023-02-25T03:00:28.285Z,44.85
2023-02-25T03:00:58.209Z,45.42
2023-02-25T03:01:24.932Z,45.35
2023-02-25T03:01:52.556Z,45.16
2023-02-25T03:02:18.152Z,45.22
2023-02-25T03:02:43.018Z,45.15
2023-02-25T03:03:10.255Z,45.17
2023-02-25T03:03:36.628Z,44.95
2023-02-25T03:04:01.485Z,45.26
2023-02-25T03:04:30.668Z,45.40
2023-02-25T03:04:57.829Z,45.37
2023-02-25T03:05:20.761Z,45.25
2023-02-25T03:05:49.014Z,45.51
2023-02-25T03:06:16.981Z,45.20
2023-02-25T03:06:43.046Z,45.25
2023-02-25T03:07:08.049Z,45.84
2023-02-25T03:07:35.889Z,45.86
2023-02-25T03:08:07.075Z,45.85
2023-02-25T03:08:31.392Z,45.79
2023-02-25T03:09:00.457Z,45.74
2023-02-25T03:09:25.594Z,45.43
2023-02-25T03:09:52.792Z,45.55
2023-02-25T03:10:20.054Z,45.26
2023-02-25T03:10:42.826Z,45.74
2023-02-25T03:11:05.386Z,45.73
2023-02-25T03:11:27.108Z,45.63
2023-02-25T03:11:50.435Z,45.56
2023-02-25T03:12:13.683Z,45.69
2023-02-25T03:12:38.789Z,45.82
2023-02-25T03:13:00.894Z,45.89
2023-02-25T03:13:24.417Z,45.85
2023-02-25T03:13:46.320Z,45.55
2023-02-25T03:14:08.600Z,45.21
2023-02-25T03:14:30.438Z,45.46
2023-02-25T03:14:53.301Z,45.62
2023-02-25T03:15:15.449Z,45.75
2023-02-25T03:15:39.010Z,45.76
2023-02-25T03:16:05.562Z,45.60
2023-02-25T03:16:34.858Z,45.76
2023-02-25T03:17:04.882Z,45.61
2023-02-25T03:17:29.366Z,45.71
2023-02-25T03:17:54.786Z,45.53
2023-02-25T03:18:24.325Z,45.73
2023-02-25T03:18:54.210Z,45.71
2023-02-25T03:19:19.289Z,45.81
2023-02-25T03:19:45.409Z,45.71
2023-02-25T03:20:11.780Z,45.50
2023-02-25T03:20:40.166Z,45.34
2023-02-25T03:21:08.569Z,45.29
2023-02-25T03:21:35.435Z,45.35
2023-02-25T03:22:03.003Z,45.31
2023-02-25T03:22:29.660Z,45.13
2023-02-25T03:22:56.186Z,45.29
2023-02-25T03:23:20.683Z,45.33
2023-02-25T03:23:46.394Z,45.35
2023-02-25T03:24:15.337Z,45.33
2023-02-25T03:24:45.544Z,45.24
2023-02-25T03:25:14.874Z,45.32
2023-02-25T03:25:47.522Z,45.34
2023-02-25T03:26:18.634Z,45.36
2023-02-25T03:26:42.589Z,45.27
2023-02-25T03:27:23.216Z,45.19
2023-02-25T03:27:48.797Z,45.42
2023-02-25T03:28:23.515Z,45.46
2023-02-25T03:28:47.310Z,45.36
2023-02-25T03:29:16.207Z,45.50
2023-02-25T03:29:39.339Z,45.40
2023-02-25T03:30:06.209Z,45.22
2023-02-25T03:30:33.851Z,45.11
2023-02-25T03:31:03.893Z,45.31
2023-02-25T03:31:29.719Z,45.33
2023-02-25T03:31:56.610Z,45.71
2023-02-25T03:32:21.308Z,45.51
2023-02-25T03:32:47.513Z,45.58
2023-02-25T03:33:27.079Z,45.19
2023-02-25T03:33:54.700Z,45.46
2023-02-25T03:34:20.476Z,45.36
2023-02-25T03:34:47.157Z,45.53
2023-02-25T03:35:11.533Z,45.43
2023-02-25T03:35:35.649Z,45.34
2023-02-25T03:35:59.398Z,45.43
2023-02-25T03:36:27.614Z,45.44
2023-02-25T03:36:54.386Z,45.24
2023-02-25T03:37:21.866Z,45.06
2023-02-25T03:37:49.887Z,45.24
2023-02-25T03:38:17.519Z,45.25
2023-02-25T03:38:44.130Z,45.43
2023-02-25T03:39:11.534Z,45.33
2023-02-25T03:39:38.768Z,45.49
2023-02-25T03:40:08.855Z,45.68
2023-02-25T03:40:32.738Z,45.84
2023-02-25T03:41:00.010Z,45.80
2023-02-25T03:41:25.988Z,45.56
2023-02-25T03:41:52.373Z,45.36
2023-02-25T03:42:19.446Z,45.29
2023-02-25T03:42:48.697Z,45.24
2023-02-25T03:43:16.339Z,45.69
2023-02-25T03:43:42.612Z,45.62
2023-02-25T03:44:09.605Z,45.51
2023-02-25T03:44:35.863Z,45.47
2023-02-25T03:45:02.469Z,45.38
2023-02-25T03:45:25.141Z,45.50
2023-02-25T03:45:47.934Z,45.68
2023-02-25T03:46:10.604Z,45.65
2023-02-25T03:46:35.306Z,45.57
2023-02-25T03:46:58.520Z,45.59
2023-02-25T03:47:25.474Z,45.55
2023-02-25T03:47:47.743Z,45.80
2023-02-25T03:48:12.929Z,45.62
2023-02-25T03:48:36.897Z,45.56
2023-02-25T03:49:04.444Z,45.37
2023-02-25T03:49:30.678Z,45.67
2023-02-25T03:49:59.197Z,45.51
2023-02-25T03:50:25.294Z,45.62
2023-02-25T03:50:59.329Z,45.36
2023-02-25T03:51:26.327Z,45.42
2023-02-25T03:51:50.994Z,45.50
2023-02-25T03:52:18.328Z,45.79
2023-02-25T03:52:42.133Z,45.67
2023-02-25T03:53:16.504Z,45.62
2023-02-25T03:53:50.579Z,45.55
2023-02-25T03:54:16.814Z,45.58
2023-02-25T03:54:40.300Z,45.49
2023-02-25T03:55:03.176Z,45.58
2023-02-25T03:55:25.657Z,45.61
2023-02-25T03:55:48.801Z,45.30
2023-02-25T03:56:12.085Z,45.18
2023-02-25T03:56:42.628Z,45.37
2023-02-25T03:57:05.590Z,45.10
2023-02-25T03:57:36.231Z,45.36
2023-02-25T03:57:58.027Z,45.30
2023-02-25T03:58:19.931Z,45.42
2023-02-25T03:58:44.030Z,45.34
2023-02-25T03:59:05.705Z,45.30
2023-02-25T03:59:27.889Z,45.40
2023-02-25T03:59:49.663Z,45.31
2023-02-25T04:00:19.216Z,45.11
2023-02-25T04:00:44.185Z,45.03
2023-02-25T04:01:09.673Z,45.08
2023-02-25T04:01:31.902Z,45.13
2023-02-25T04:01:57.257Z,45.06
2023-02-25T04:02:21.291Z,45.18
2023-02-25T04:02:44.588Z,45.59
2023-02-25T04:03:06.682Z,45.22
2023-02-25T04:03:29.760Z,45.25
2023-02-25T04:03:51.980Z,45.10
2023-02-25T04:04:14.949Z,45.29
2023-02-25T04:04:37.510Z,45.33
2023-02-25T04:05:00.602Z,45.18
2023-02-25T04:05:26.882Z,45.04
2023-02-25T04:05:48.634Z,44.95
2023-02-25T04:06:12.045Z,45.05
2023-02-25T04:06:34.805Z,45.16
2023-02-25T04:06:56.655Z,45.36
2023-02-25T04:07:18.441Z,45.24
2023-02-25T04:07:40.404Z,45.23
2023-02-25T04:08:03.479Z,45.25
2023-02-25T04:08:28.881Z,45.20
2023-02-25T04:08:50.684Z,45.06
2023-02-25T04:09:12.809Z,44.95
2023-02-25T04:09:35.554Z,45.08
2023-02-25T04:09:57.439Z,45.14
2023-02-25T04:10:19.602Z,45.24
2023-02-25T04:10:43.542Z,45.15
2023-02-25T04:11:07.196Z,45.35
2023-02-25T04:11:29.222Z,45.26
2023-02-25T04:11:50.920Z,45.15
2023-02-25T04:12:12.734Z,45.14
2023-02-25T04:12:34.648Z,45.54
2023-02-25T04:12:57.594Z,45.65
2023-02-25T04:13:20.865Z,45.57
2023-02-25T04:13:43.701Z,45.20
2023-02-25T04:14:05.479Z,45.41
2023-02-25T04:14:28.626Z,45.53
2023-02-25T04:14:50.320Z,45.48
2023-02-25T04:15:14.165Z,45.66
2023-02-25T04:15:36.489Z,45.50
2023-02-25T04:15:58.972Z,45.33
2023-02-25T04:16:22.558Z,45.45
2023-02-25T04:16:45.147Z,45.38
2023-02-25T04:17:06.945Z,45.65
2023-02-25T04:17:30.027Z,45.63
2023-02-25T04:17:51.863Z,45.42
2023-02-25T04:18:14.817Z,45.49
2023-02-25T04:18:36.527Z,45.36
2023-02-25T04:18:59.989Z,45.59
2023-02-25T04:19:23.598Z,45.30
2023-02-25T04:19:45.780Z,45.47
2023-02-25T04:20:08.850Z,45.59
2023-02-25T04:20:31.186Z,45.68
2023-02-25T04:20:54.435Z,45.65
2023-02-25T04:21:28.159Z,45.59
2023-02-25T04:21:49.836Z,45.42
2023-02-25T04:22:11.792Z,45.37
2023-02-25T04:22:35.081Z,45.33
2023-02-25T04:22:56.800Z,45.33
2023-02-25T04:23:18.553Z,45.30
2023-02-25T04:23:40.295Z,45.40
2023-02-25T04:24:04.156Z,45.45
2023-02-25T04:24:26.242Z,45.24
2023-02-25T04:24:47.998Z,45.17
2023-02-25T04:25:10.058Z,45.23
2023-02-25T04:25:32.788Z,45.19
2023-02-25T04:25:54.697Z,45.38
2023-02-25T04:26:16.549Z,45.27
2023-02-25T04:26:38.199Z,45.14
2023-02-25T04:27:01.851Z,45.47
2023-02-25T04:27:24.170Z,45.44
2023-02-25T04:27:46.062Z,45.36
2023-02-25T04:28:07.832Z,45.50
2023-02-25T04:28:29.505Z,45.42
2023-02-25T04:28:53.030Z,45.26
2023-02-25T04:29:14.749Z,45.31
2023-02-25T04:29:36.464Z,45.42
2023-02-25T04:29:58.342Z,45.58
2023-02-25T04:30:21.899Z,45.59
2023-02-25T04:30:43.958Z,45.58
2023-02-25T04:31:05.696Z,45.48
2023-02-25T04:31:27.700Z,45.44
2023-02-25T04:31:50.860Z,45.41
2023-02-25T04:32:12.930Z,45.47
2023-02-25T04:32:36.277Z,45.58
2023-02-25T04:32:58.039Z,45.43
2023-02-25T04:33:19.913Z,45.44
2023-02-25T04:33:42.665Z,45.44
2023-02-25T04:34:04.472Z,45.60
2023-02-25T04:34:26.196Z,45.41
2023-02-25T04:34:47.937Z,45.48
2023-02-25T04:35:13.505Z,45.64
2023-02-25T04:35:35.326Z,45.38
2023-02-25T04:35:57.113Z,45.45
2023-02-25T04:36:26.873Z,45.53
2023-02-25T04:36:50.057Z,45.15
2023-02-25T04:37:11.797Z,45.09
2023-02-25T04:37:34.477Z,45.33
2023-02-25T04:37:56.439Z,45.13
2023-02-25T04:38:18.352Z,44.98
2023-02-25T04:38:40.052Z,44.98
2023-02-25T04:39:04.658Z,45.16
2023-02-25T04:39:27.390Z,44.92
2023-02-25T04:39:49.084Z,44.93
2023-02-25T04:40:15.140Z,45.11
2023-02-25T04:40:37.515Z,45.10
2023-02-25T04:41:00.486Z,45.12
2023-02-25T04:41:22.823Z,45.20
2023-02-25T04:41:45.647Z,45.29
2023-02-25T04:42:07.838Z,45.41
2023-02-25T04:42:30.628Z,45.61
2023-02-25T04:42:52.350Z,45.37
2023-02-25T04:43:14.381Z,45.31
2023-02-25T04:43:36.130Z,45.28
2023-02-25T04:43:57.939Z,45.34
2023-02-25T04:44:20.893Z,45.40
2023-02-25T04:44:42.777Z,45.43
2023-02-25T04:45:05.324Z,45.43
2023-02-25T04:45:27.360Z,45.58
2023-02-25T04:45:50.424Z,45.70
2023-02-25T04:46:12.695Z,45.80
2023-02-25T04:46:37.439Z,45.61
2023-02-25T04:46:59.307Z,45.60
2023-02-25T04:47:22.176Z,45.50
2023-02-25T04:47:45.540Z,45.62
2023-02-25T04:48:07.813Z,45.45
2023-02-25T04:48:29.624Z,45.55
2023-02-25T04:48:52.416Z,45.43
2023-02-25T04:49:14.456Z,45.17
2023-02-25T04:49:45.058Z,45.27
2023-02-25T04:50:08.849Z,45.29
2023-02-25T04:50:31.545Z,45.26
2023-02-25T04:50:53.680Z,45.35
2023-02-25T04:51:15.965Z,45.28
2023-02-25T04:51:39.367Z,45.40
2023-02-25T04:52:02.378Z,45.43
2023-02-25T04:52:24.288Z,45.39
2023-02-25T04:52:46.396Z,45.40
2023-02-25T04:53:08.201Z,45.12
2023-02-25T04:53:31.161Z,45.08
2023-02-25T04:53:52.906Z,45.27
2023-02-25T04:54:14.618Z,45.23
2023-02-25T04:54:36.336Z,45.25
2023-02-25T04:54:57.964Z,45.28
2023-02-25T04:55:20.903Z,45.15
2023-02-25T04:55:42.595Z,45.18
2023-02-25T04:56:05.989Z,45.13
2023-02-25T04:56:27.902Z,45.36
2023-02-25T04:56:49.762Z,45.43
2023-02-25T04:57:14.485Z,45.56
2023-02-25T04:57:38.231Z,45.41
2023-02-25T04:58:00.390Z,45.27
2023-02-25T04:58:22.065Z,45.09
2023-02-25T04:58:44.193Z,45.21
2023-02-25T04:59:07.564Z,45.30
2023-02-25T04:59:29.403Z,45.19
2023-02-25T04:59:51.139Z,45.32
2023-02-25T05:00:16.782Z,45.17
2023-02-25T05:00:40.764Z,45.10
2023-02-25T05:01:05.531Z,45.10
2023-02-25T05:01:27.469Z,45.32
2023-02-25T05:01:49.445Z,45.27
2023-02-25T05:02:12.719Z,45.15
2023-02-25T05:02:34.394Z,45.03
2023-02-25T05:02:58.482Z,44.92
2023-02-25T05:03:20.214Z,45.11
2023-02-25T05:03:42.402Z,44.85
2023-02-25T05:04:06.284Z,44.74
2023-02-25T05:04:28.249Z,44.94
2023-02-25T05:04:50.292Z,45.10
2023-02-25T05:05:12.610Z,45.13
2023-02-25T05:05:34.549Z,45.01
2023-02-25T05:05:57.672Z,44.94
2023-02-25T05:06:19.342Z,44.77
2023-02-25T05:06:41.415Z,44.96
2023-02-25T05:07:03.698Z,44.87
2023-02-25T05:07:26.987Z,45.05
2023-02-25T05:07:48.954Z,44.89
2023-02-25T05:08:11.171Z,44.94
2023-02-25T05:08:33.502Z,44.93
2023-02-25T05:08:57.962Z,44.76
2023-02-25T05:09:21.516Z,44.85
2023-02-25T05:09:44.040Z,45.15
2023-02-25T05:10:06.728Z,45.25
2023-02-25T05:10:28.815Z,45.38
2023-02-25T05:10:52.093Z,45.25
2023-02-25T05:11:13.798Z,45.28
2023-02-25T05:11:35.641Z,45.30
2023-02-25T05:11:57.315Z,45.27
2023-02-25T05:12:19.120Z,45.29
2023-02-25T05:12:42.345Z,45.53
2023-02-25T05:13:04.048Z,45.73
2023-02-25T05:13:27.037Z,45.37
2023-02-25T05:13:48.885Z,45.23
2023-02-25T05:14:10.717Z,44.97
2023-02-25T05:14:33.799Z,44.97
2023-02-25T05:14:55.677Z,44.89
2023-02-25T05:15:17.524Z,44.85
2023-02-25T05:15:39.542Z,44.80
2023-02-25T05:16:06.078Z,44.87
2023-02-25T05:16:29.041Z,45.00
2023-02-25T05:16:50.998Z,45.24
2023-02-25T05:17:15.819Z,45.18
2023-02-25T05:17:37.646Z,45.48
2023-02-25T05:18:02.107Z,45.11
2023-02-25T05:18:23.812Z,45.23
2023-02-25T05:18:47.497Z,45.23
2023-02-25T05:19:14.668Z,45.17
2023-02-25T05:19:37.336Z,45.17
2023-02-25T05:19:59.273Z,45.24
2023-02-25T05:20:23.322Z,45.32